createdAt,value
2022-08-03T00:03:48.722Z,0
2022-08-03T00:08:48.706Z,0
2022-08-03T00:13:48.740Z,0
2022-08-03T00:24:04.187Z,0
2022-08-03T00:28:48.958Z,0
2022-08-03T00:33:58.455Z,0
2022-08-03T00:38:48.756Z,0
2022-08-03T00:43:48.793Z,0
2022-08-03T00:48:48.747Z,0
2022-08-03T00:53:48.749Z,0
2022-08-03T00:58:48.795Z,0
2022-08-03T01:03:48.843Z,0
2022-08-03T01:08:48.732Z,0
2022-08-03T01:14:01.810Z,0
2022-08-03T01:18:48.734Z,0
2022-08-03T01:23:48.736Z,0
2022-08-03T01:28:48.790Z,0
2022-08-03T01:33:48.718Z,0
2022-08-03T01:38:48.773Z,0
2022-08-03T01:43:55.642Z,0
2022-08-03T01:48:48.760Z,0
2022-08-03T01:53:48.740Z,0
2022-08-03T01:58:48.768Z,0
2022-08-03T02:03:53.549Z,0
2022-08-03T02:08:48.751Z,0
2022-08-03T02:13:48.776Z,0
2022-08-03T02:18:48.770Z,0
2022-08-03T02:23:48.749Z,0
2022-08-03T02:28:51.763Z,0
2022-08-03T02:33:48.755Z,0
2022-08-03T02:38:48.815Z,0
2022-08-03T02:44:05.788Z,0
2022-08-03T02:48:48.782Z,0
2022-08-03T02:53:48.804Z,0
2022-08-03T02:58:48.866Z,0
2022-08-03T03:03:48.752Z,0
2022-08-03T03:08:48.790Z,0
2022-08-03T03:13:48.844Z,0
2022-08-03T03:18:51.816Z,0
2022-08-03T03:23:48.804Z,0
2022-08-03T03:28:48.779Z,0
2022-08-03T03:33:48.811Z,0
2022-08-03T03:38:48.810Z,0
2022-08-03T03:43:49.851Z,0
2022-08-03T03:48:48.837Z,0
2022-08-03T03:53:48.893Z,0
2022-08-03T03:58:48.801Z,0
2022-08-03T04:03:49.823Z,0
2022-08-03T04:08:49.801Z,0
2022-08-03T04:13:48.899Z,0
2022-08-03T04:18:48.830Z,265
2022-08-03T04:23:48.810Z,266
2022-08-03T04:28:48.794Z,267
2022-08-03T04:33:48.816Z,266
2022-08-03T04:38:48.780Z,269
2022-08-03T04:43:48.809Z,269
2022-08-03T04:53:48.848Z,271
2022-08-03T04:58:48.828Z,272
2022-08-03T05:03:48.872Z,272
2022-08-03T05:08:51.899Z,273
2022-08-03T05:13:48.826Z,275
2022-08-03T05:18:48.859Z,273
2022-08-03T05:23:48.817Z,274
2022-08-03T05:28:51.829Z,276
2022-08-03T05:33:51.826Z,277
2022-08-03T05:38:48.863Z,276
2022-08-03T05:43:48.809Z,277
2022-08-03T05:48:48.836Z,278
2022-08-03T05:53:48.813Z,278
2022-08-03T05:58:48.948Z,278
2022-08-03T06:03:49.905Z,280
2022-08-03T06:08:48.902Z,280
2022-08-03T06:13:48.839Z,279
2022-08-03T06:18:48.826Z,279
2022-08-03T06:23:53.677Z,281
2022-08-03T06:28:53.872Z,281
2022-08-03T06:34:31.820Z,282
2022-08-03T06:38:52.598Z,281
2022-08-03T06:44:02.766Z,281
2022-08-03T06:48:48.833Z,284
2022-08-03T06:53:48.849Z,283
2022-08-03T06:58:48.914Z,287
2022-08-03T07:03:52.221Z,286
2022-08-03T07:08:55.492Z,286
2022-08-03T07:13:48.888Z,289
2022-08-03T07:18:48.873Z,290
2022-08-03T07:23:48.962Z,291
2022-08-03T07:28:53.862Z,291
2022-08-03T07:33:51.919Z,291
2022-08-03T07:38:48.873Z,295
2022-08-03T07:43:49.878Z,296
2022-08-03T07:48:48.899Z,297
2022-08-03T10:04:34.631Z,1886
2022-08-03T10:09:34.972Z,1783
2022-08-03T10:14:34.659Z,1871
2022-08-03T10:19:34.657Z,1885
2022-08-03T10:24:34.669Z,1863
2022-08-03T10:29:34.656Z,1773
2022-08-03T10:34:34.651Z,1822
2022-08-03T10:39:34.699Z,1728
2022-08-03T10:44:34.649Z,1570
2022-08-03T10:49:37.701Z,1610
2022-08-03T10:54:35.827Z,1538
2022-08-03T10:59:34.666Z,1693
2022-08-03T11:04:34.647Z,1606
2022-08-03T11:19:57.150Z,572
2022-08-03T11:24:41.711Z,379
2022-08-03T11:29:38.685Z,367
2022-08-03T11:34:41.681Z,346
2022-08-03T11:39:38.707Z,335
2022-08-03T11:44:38.646Z,329
2022-08-03T11:49:38.685Z,323
2022-08-03T11:54:38.778Z,314
2022-08-03T11:59:39.776Z,313
2022-08-03T12:04:38.688Z,310
2022-08-03T12:09:38.753Z,307
2022-08-03T12:14:46.536Z,287
2022-08-03T12:44:42.864Z,288
2022-08-03T12:49:41.742Z,292
2022-08-03T12:54:38.723Z,291
2022-08-03T12:59:41.757Z,284
2022-08-03T13:04:38.766Z,296
2022-08-03T13:09:38.726Z,295
2022-08-03T13:14:38.709Z,294
2022-08-03T13:19:38.758Z,294
2022-08-03T13:24:38.765Z,293
2022-08-03T13:29:38.766Z,294
2022-08-03T13:34:38.958Z,293
2022-08-03T13:39:48.299Z,293
2022-08-03T13:44:38.782Z,294
2022-08-03T13:49:38.769Z,294
2022-08-03T13:54:41.775Z,299
2022-08-03T13:59:38.730Z,295
2022-08-03T14:04:38.732Z,296
2022-08-03T14:09:38.787Z,294
2022-08-03T14:14:38.788Z,297
2022-08-03T14:19:52.833Z,290
2022-08-03T14:24:38.800Z,292
2022-08-03T14:29:38.773Z,291
2022-08-03T14:34:38.831Z,291
2022-08-03T14:40:01.082Z,291
2022-08-03T14:44:38.761Z,291
2022-08-03T14:50:35.105Z,291
2022-08-03T14:54:38.895Z,290
2022-08-03T14:59:54.038Z,289
2022-08-03T15:04:38.783Z,290
2022-08-03T15:09:38.823Z,289
2022-08-03T15:14:39.002Z,292
2022-08-03T15:20:00.161Z,297
2022-08-03T15:24:38.788Z,301
2022-08-03T15:30:04.661Z,296
2022-08-03T15:34:38.759Z,296
2022-08-03T15:39:58.635Z,295
2022-08-03T15:44:38.778Z,295
2022-08-03T15:49:38.796Z,293
2022-08-03T15:54:39.695Z,295
2022-08-03T15:59:39.044Z,295
2022-08-03T16:04:38.847Z,292
2022-08-03T16:09:43.591Z,291
2022-08-03T16:14:51.686Z,288
2022-08-03T16:19:39.833Z,288
2022-08-03T16:24:41.907Z,285
2022-08-03T16:29:38.843Z,286
2022-08-03T16:34:38.798Z,285
2022-08-03T16:39:38.979Z,284
2022-08-03T16:44:38.822Z,283
2022-08-03T16:49:53.382Z,282
2022-08-03T16:54:38.893Z,282
2022-08-03T16:59:42.543Z,282
2022-08-03T17:04:41.867Z,280
2022-08-03T17:09:40.043Z,278
2022-08-03T17:14:38.789Z,277
2022-08-03T17:19:38.840Z,276
2022-08-03T17:24:42.170Z,273
2022-08-03T17:29:45.066Z,274
2022-08-03T17:34:38.810Z,272
2022-08-03T17:39:58.542Z,271
2022-08-03T17:44:46.488Z,271
2022-08-03T17:49:41.863Z,269
2022-08-03T17:59:51.214Z,268
2022-08-03T18:04:41.887Z,268
2022-08-03T18:10:05.457Z,268
2022-08-03T18:14:38.867Z,267
2022-08-03T18:20:01.739Z,267
2022-08-03T18:24:38.899Z,265
2022-08-03T18:34:53.237Z,0
2022-08-03T18:39:49.797Z,0
2022-08-03T18:44:53.651Z,0
2022-08-03T18:49:38.871Z,0
2022-08-03T18:54:46.398Z,0
2022-08-03T18:59:38.838Z,0
2022-08-03T19:04:41.954Z,0
2022-08-03T19:09:41.911Z,0
2022-08-03T19:14:42.342Z,0
2022-08-03T19:19:43.250Z,0
2022-08-03T19:24:38.906Z,0
2022-08-03T19:29:58.239Z,0
2022-08-03T19:34:42.025Z,0
2022-08-03T19:39:38.896Z,0
2022-08-03T19:44:41.899Z,0
2022-08-03T19:49:57.776Z,0
2022-08-03T19:54:45.934Z,0
2022-08-03T19:59:49.525Z,0
2022-08-03T20:04:39.894Z,0
2022-08-03T20:09:44.566Z,0
2022-08-03T20:14:41.876Z,0
2022-08-03T20:19:38.999Z,0
2022-08-03T20:24:39.926Z,0
2022-08-03T20:29:42.832Z,0
2022-08-03T20:34:38.934Z,0
2022-08-03T20:39:42.037Z,0
2022-08-03T20:44:38.903Z,0
2022-08-03T20:49:45.562Z,0
2022-08-03T20:54:39.958Z,0
2022-08-03T20:59:47.479Z,0
2022-08-03T21:04:42.631Z,0
2022-08-03T21:09:44.059Z,0
2022-08-03T21:14:38.951Z,0
2022-08-03T21:19:51.894Z,0
2022-08-03T21:24:38.917Z,0
2022-08-03T21:29:52.756Z,0
2022-08-03T21:34:38.955Z,0
2022-08-03T21:39:50.614Z,0
2022-08-03T21:44:38.896Z,0
2022-08-03T21:49:52.544Z,0
2022-08-03T21:54:38.926Z,0
2022-08-03T21:59:38.923Z,0
2022-08-03T22:04:50.490Z,0
2022-08-03T22:09:38.979Z,0
2022-08-03T22:14:39.036Z,0
2022-08-03T22:19:39.039Z,0
2022-08-03T22:24:39.005Z,0
2022-08-03T22:29:38.940Z,0
2022-08-03T22:34:38.941Z,0
2022-08-03T22:39:39.009Z,0
2022-08-03T22:44:38.975Z,0
2022-08-03T22:49:38.938Z,0
2022-08-03T22:54:38.975Z,0
2022-08-03T22:59:42.925Z,0
2022-08-03T23:04:38.986Z,0
2022-08-03T23:09:38.965Z,0
2022-08-03T23:14:38.957Z,0
2022-08-03T23:19:44.693Z,0
2022-08-03T23:24:41.945Z,0
2022-08-03T23:29:38.961Z,0
2022-08-03T23:34:38.970Z,0
2022-08-03T23:39:39.458Z,0
2022-08-03T23:44:39.456Z,0
2022-08-03T23:49:38.979Z,0
2022-08-03T23:54:38.977Z,0
2022-08-03T23:59:38.945Z,0
